createdAt,value
2023-01-12T00:01:58.600Z,98.15
2023-01-12T00:04:25.942Z,102.38
2023-01-12T00:06:53.864Z,97.22
2023-01-12T00:09:21.182Z,107.40
2023-01-12T00:11:48.489Z,108.55
2023-01-12T00:14:15.946Z,96.78
2023-01-12T00:16:43.491Z,96.38
2023-01-12T00:19:17.667Z,92.50
2023-01-12T00:21:51.275Z,96.00
2023-01-12T00:24:19.431Z,87.40
2023-01-12T00:26:48.084Z,82.55
2023-01-12T00:29:16.705Z,80.68
2023-01-12T00:31:44.616Z,63.88
2023-01-12T00:34:12.309Z,76.85
2023-01-12T00:36:39.907Z,92.75
2023-01-12T00:39:07.953Z,51.80
2023-01-12T00:41:55.627Z,48.53
2023-01-12T00:44:42.554Z,45.83
2023-01-12T00:47:11.092Z,47.78
2023-01-12T00:49:39.391Z,60.20
2023-01-12T00:52:09.854Z,99.63
2023-01-12T00:54:38.807Z,102.60
2023-01-12T00:57:06.196Z,95.07
2023-01-12T00:59:33.577Z,92.68
2023-01-12T01:02:01.021Z,93.22
2023-01-12T01:04:28.264Z,87.97
2023-01-12T01:06:55.517Z,55.13
2023-01-12T01:09:22.925Z,49.90
2023-01-12T01:11:50.181Z,40.92
2023-01-12T01:14:17.574Z,41.17
2023-01-12T01:16:44.952Z,37.72
2023-01-12T01:19:12.256Z,38.00
2023-01-12T01:21:39.594Z,34.65
2023-01-12T01:24:14.170Z,47.10
2023-01-12T01:26:42.299Z,48.05
2023-01-12T01:29:10.218Z,48.33
2023-01-12T01:31:37.764Z,43.50
2023-01-12T01:34:05.096Z,36.67
2023-01-12T01:36:32.593Z,36.38
2023-01-12T01:38:59.831Z,38.10
2023-01-12T01:41:30.496Z,43.55
2023-01-12T01:44:05.211Z,43.90
2023-01-12T01:46:49.541Z,43.15
2023-01-12T01:49:41.664Z,48.58
2023-01-12T01:52:14.136Z,52.20
2023-01-12T01:54:57.005Z,51.60
2023-01-12T01:57:37.164Z,68.63
2023-01-12T02:00:06.715Z,54.38
2023-01-12T02:02:35.823Z,53.20
2023-01-12T02:05:03.448Z,34.67
2023-01-12T02:07:31.258Z,29.40
2023-01-12T02:09:58.470Z,36.30
2023-01-12T02:12:44.069Z,36.67
2023-01-12T02:15:30.224Z,33.72
2023-01-12T02:18:25.732Z,36.63
2023-01-12T02:21:00.633Z,36.05
2023-01-12T02:23:30.759Z,36.33
2023-01-12T02:26:19.697Z,36.05
2023-01-12T02:28:52.713Z,41.35
2023-01-12T02:31:51.115Z,41.42
2023-01-12T02:34:47.587Z,40.45
2023-01-12T02:37:43.027Z,42.13
2023-01-12T02:40:10.546Z,39.67
2023-01-12T02:42:42.127Z,39.70
2023-01-12T02:45:24.529Z,40.72
2023-01-12T02:47:57.686Z,41.67
2023-01-12T02:50:51.150Z,38.25
2023-01-12T02:53:24.959Z,36.28
2023-01-12T02:55:53.240Z,37.05
2023-01-12T02:58:23.577Z,39.05
2023-01-12T03:00:55.302Z,37.45
2023-01-12T03:03:23.613Z,37.55
2023-01-12T03:05:51.805Z,35.40
2023-01-12T03:08:23.744Z,35.60
2023-01-12T03:10:55.046Z,34.10
2023-01-12T03:13:25.271Z,41.60
2023-01-12T03:15:55.611Z,38.83
2023-01-12T03:18:28.381Z,44.08
2023-01-12T03:21:21.842Z,47.08
2023-01-12T03:23:59.571Z,45.13
2023-01-12T03:26:29.446Z,36.13
2023-01-12T03:29:12.715Z,34.17
2023-01-12T03:31:40.808Z,38.17
2023-01-12T03:34:10.137Z,39.13
2023-01-12T03:37:03.642Z,35.50
2023-01-12T03:39:51.488Z,36.65
2023-01-12T03:42:35.314Z,35.38
2023-01-12T03:45:28.938Z,32.88
2023-01-12T03:48:06.111Z,34.78
2023-01-12T03:51:04.906Z,36.10
2023-01-12T03:53:33.835Z,35.17
2023-01-12T03:56:06.734Z,35.70
2023-01-12T03:58:35.092Z,34.88
2023-01-12T04:01:03.613Z,34.63
2023-01-12T04:03:31.039Z,36.90
2023-01-12T04:05:58.323Z,37.45
2023-01-12T04:08:25.626Z,39.50
2023-01-12T04:10:52.876Z,43.40
2023-01-12T04:13:20.086Z,41.33
2023-01-12T04:15:48.268Z,38.92
2023-01-12T04:18:15.715Z,37.00
2023-01-12T04:20:43.030Z,38.63
2023-01-12T04:23:10.288Z,38.97
2023-01-12T04:25:37.518Z,39.00
2023-01-12T04:28:05.055Z,39.50
2023-01-12T04:30:33.686Z,34.92
2023-01-12T04:33:06.754Z,33.20
2023-01-12T04:35:34.029Z,32.47
2023-01-12T04:38:06.702Z,32.30
2023-01-12T04:40:34.195Z,34.70
2023-01-12T04:43:01.660Z,32.63
2023-01-12T04:45:31.568Z,34.85
2023-01-12T04:50:30.478Z,35.35
2023-01-12T04:52:57.946Z,35.22
2023-01-12T04:55:25.322Z,36.40
2023-01-12T04:57:52.498Z,34.30
2023-01-12T05:00:20.441Z,36.45
2023-01-12T05:02:47.741Z,36.13
2023-01-12T05:05:15.042Z,36.90
2023-01-12T05:08:02.325Z,37.67
2023-01-12T05:10:30.384Z,34.20
2023-01-12T05:12:57.574Z,34.42
2023-01-12T05:15:24.920Z,34.47
2023-01-12T05:17:54.376Z,35.00
2023-01-12T05:20:21.804Z,35.03
2023-01-12T05:22:51.470Z,35.35
2023-01-12T05:25:18.855Z,34.85
2023-01-12T05:27:46.195Z,34.78
2023-01-12T05:30:13.675Z,34.10
2023-01-12T05:32:41.435Z,35.80
2023-01-12T05:35:09.203Z,34.15
2023-01-12T05:37:36.471Z,33.97
2023-01-12T05:40:04.302Z,35.42
2023-01-12T05:43:09.657Z,35.97
2023-01-12T05:45:37.009Z,37.10
2023-01-12T05:48:04.736Z,35.72
2023-01-12T05:50:32.074Z,37.45
2023-01-12T05:53:09.612Z,38.35
2023-01-12T05:55:39.034Z,39.85
2023-01-12T05:58:06.256Z,40.58
2023-01-12T06:00:33.529Z,36.08
2023-01-12T06:03:02.730Z,34.22
2023-01-12T06:05:30.034Z,35.50
2023-01-12T06:07:58.138Z,36.40
2023-01-12T06:10:25.388Z,37.92
2023-01-12T06:13:11.165Z,41.47
2023-01-12T06:15:38.462Z,39.97
2023-01-12T06:18:05.961Z,40.47
2023-01-12T06:20:33.199Z,43.03
2023-01-12T06:23:02.259Z,41.80
2023-01-12T06:25:30.119Z,43.03
2023-01-12T06:27:57.695Z,46.75
2023-01-12T06:30:25.461Z,48.58
2023-01-12T06:32:52.774Z,52.05
2023-01-12T06:35:20.203Z,48.35
2023-01-12T06:37:47.533Z,47.78
2023-01-12T06:40:15.910Z,45.55
2023-01-12T06:42:43.245Z,48.17
2023-01-12T06:45:10.991Z,52.25
2023-01-12T06:47:46.362Z,54.95
2023-01-12T06:50:13.652Z,45.67
2023-01-12T06:52:40.999Z,47.13
2023-01-12T06:55:08.955Z,45.88
2023-01-12T06:57:36.215Z,54.42
2023-01-12T07:00:05.613Z,51.80
2023-01-12T07:02:32.904Z,54.60
2023-01-12T07:05:00.199Z,55.85
2023-01-12T07:07:27.545Z,55.83
2023-01-12T07:09:54.781Z,55.85
2023-01-12T07:12:22.267Z,49.78
2023-01-12T07:14:49.557Z,55.10
2023-01-12T07:17:16.979Z,49.90
2023-01-12T07:19:44.293Z,52.53
2023-01-12T07:22:11.573Z,65.70
2023-01-12T07:24:38.814Z,60.10
2023-01-12T07:27:06.524Z,65.28
2023-01-12T07:29:33.761Z,67.47
2023-01-12T07:32:01.869Z,69.18
2023-01-12T07:34:29.975Z,66.43
2023-01-12T07:36:57.437Z,59.10
2023-01-12T07:39:24.734Z,56.55
2023-01-12T07:42:10.509Z,56.08
2023-01-12T07:44:37.779Z,49.20
2023-01-12T07:47:05.050Z,46.75
2023-01-12T07:49:32.293Z,48.67
2023-01-12T07:51:59.627Z,47.72
2023-01-12T07:54:26.953Z,43.20
2023-01-12T07:56:54.235Z,43.20
2023-01-12T07:59:21.651Z,44.40
2023-01-12T08:01:48.923Z,36.63
2023-01-12T08:04:16.293Z,36.53
2023-01-12T08:06:43.608Z,37.50
2023-01-12T08:09:10.880Z,37.53
2023-01-12T08:11:38.541Z,36.75
2023-01-12T08:14:05.802Z,35.35
2023-01-12T08:16:39.609Z,33.88
2023-01-12T08:19:15.443Z,35.20
2023-01-12T08:21:48.236Z,33.35
2023-01-12T08:24:19.508Z,33.58
2023-01-12T08:26:49.233Z,31.35
2023-01-12T08:29:32.882Z,30.77
2023-01-12T08:32:04.802Z,32.17
2023-01-12T08:34:40.582Z,29.33
2023-01-12T08:37:11.723Z,30.30
2023-01-12T08:39:39.575Z,29.88
2023-01-12T08:42:07.143Z,27.17
2023-01-12T08:44:37.192Z,29.00
2023-01-12T08:47:06.011Z,30.05
2023-01-12T08:49:34.326Z,24.00
2023-01-12T08:52:01.776Z,26.08
2023-01-12T08:54:29.230Z,26.63
2023-01-12T08:56:56.600Z,28.95
2023-01-12T08:59:24.108Z,23.17
2023-01-12T09:01:51.479Z,24.85
2023-01-12T09:04:18.928Z,22.70
2023-01-12T09:06:47.121Z,22.45
2023-01-12T09:09:20.163Z,22.85
2023-01-12T09:11:48.965Z,21.42
2023-01-12T09:14:17.064Z,21.10
2023-01-12T09:16:44.994Z,17.98
2023-01-12T09:19:12.339Z,19.20
2023-01-12T09:21:41.946Z,13.88
2023-01-12T09:24:11.098Z,13.82
2023-01-12T09:26:40.581Z,18.92
2023-01-12T09:29:08.709Z,14.25
2023-01-12T09:31:37.595Z,18.63
2023-01-12T09:34:05.130Z,14.90
2023-01-12T09:36:34.944Z,13.80
2023-01-12T09:39:02.732Z,11.45
2023-01-12T09:42:19.105Z,14.90
2023-01-12T09:45:08.376Z,10.77
2023-01-12T09:47:40.267Z,10.52
2023-01-12T09:50:21.294Z,12.95
2023-01-12T09:52:54.837Z,11.02
2023-01-12T09:55:25.555Z,11.30
2023-01-12T09:58:04.755Z,11.43
2023-01-12T10:00:32.757Z,9.63
2023-01-12T10:03:02.972Z,9.40
2023-01-12T10:05:40.665Z,11.18
2023-01-12T10:08:17.321Z,13.27
2023-01-12T10:10:58.424Z,12.38
2023-01-12T10:13:41.085Z,12.88
2023-01-12T10:16:16.689Z,9.30
2023-01-12T10:18:48.480Z,7.60
2023-01-12T10:21:16.795Z,9.82
2023-01-12T10:23:44.724Z,9.90
2023-01-12T10:26:23.144Z,8.18
2023-01-12T10:28:53.836Z,6.80
2023-01-12T10:31:24.504Z,7.18
2023-01-12T10:34:05.037Z,7.80
2023-01-12T10:36:34.665Z,9.88
2023-01-12T10:39:04.845Z,8.05
2023-01-12T10:41:37.937Z,8.85
2023-01-12T10:44:17.523Z,6.50
2023-01-12T10:47:10.897Z,5.38
2023-01-12T10:49:38.480Z,5.55
2023-01-12T10:52:36.491Z,6.78
2023-01-12T10:55:05.037Z,5.00
2023-01-12T10:57:33.918Z,6.55
2023-01-12T11:00:04.727Z,8.18
2023-01-12T11:02:43.729Z,8.35
2023-01-12T11:05:37.507Z,5.87
2023-01-12T11:08:31.886Z,5.78
2023-01-12T11:11:15.957Z,7.72
2023-01-12T11:13:44.540Z,6.65
2023-01-12T11:16:23.329Z,7.20
2023-01-12T11:19:04.565Z,7.28
2023-01-12T11:21:36.817Z,9.05
2023-01-12T11:24:32.130Z,5.80
2023-01-12T11:27:29.648Z,7.07
2023-01-12T11:30:14.714Z,5.68
2023-01-12T11:32:57.638Z,15.90
2023-01-12T11:35:37.273Z,5.18
2023-01-12T11:38:12.120Z,7.47
2023-01-12T11:40:41.608Z,5.88
2023-01-12T11:43:50.635Z,6.78
2023-01-12T11:46:24.989Z,6.37
2023-01-12T11:49:11.892Z,4.93
2023-01-12T11:51:40.436Z,5.13
2023-01-12T11:54:13.893Z,6.03
2023-01-12T11:57:12.170Z,4.50
2023-01-12T12:00:01.066Z,4.90
2023-01-12T12:02:34.617Z,4.57
2023-01-12T12:05:17.241Z,5.25
2023-01-12T12:08:06.275Z,7.18
2023-01-12T12:10:56.351Z,5.90
2023-01-12T12:16:00.877Z,5.57
2023-01-12T12:18:34.180Z,5.05
2023-01-12T12:21:07.417Z,4.90
2023-01-12T12:23:58.111Z,5.32
2023-01-12T12:26:45.144Z,5.72
2023-01-12T12:29:18.419Z,5.45
2023-01-12T12:31:57.303Z,6.18
2023-01-12T12:34:33.233Z,6.10
2023-01-12T12:37:29.866Z,5.70
2023-01-12T12:40:28.049Z,6.60
2023-01-12T12:43:34.309Z,5.55
2023-01-12T12:46:22.834Z,5.95
2023-01-12T12:48:58.003Z,5.68
2023-01-12T12:51:27.963Z,6.82
2023-01-12T12:56:25.178Z,5.40
2023-01-12T12:58:57.275Z,5.15
2023-01-12T13:01:24.799Z,5.47
2023-01-12T13:03:57.024Z,6.25
2023-01-12T13:06:39.348Z,5.15
2023-01-12T13:09:12.404Z,5.00
2023-01-12T13:11:53.782Z,5.88
2023-01-12T13:14:34.492Z,6.15
2023-01-12T13:17:20.122Z,6.65
2023-01-12T13:20:10.754Z,6.50
2023-01-12T13:22:46.191Z,6.10
2023-01-12T13:25:16.576Z,7.15
2023-01-12T13:28:17.985Z,7.03
2023-01-12T13:30:53.312Z,6.72
2023-01-12T13:33:25.954Z,6.05
2023-01-12T13:35:53.177Z,6.25
2023-01-12T13:38:44.618Z,8.70
2023-01-12T13:41:15.093Z,9.63
2023-01-12T13:43:48.253Z,7.57
2023-01-12T13:46:20.325Z,7.65
2023-01-12T13:48:52.886Z,7.15
2023-01-12T13:51:44.359Z,7.40
2023-01-12T13:54:14.764Z,9.18
2023-01-12T13:56:43.362Z,6.65
2023-01-12T13:59:18.455Z,7.43
2023-01-12T14:01:48.467Z,6.90
2023-01-12T14:04:19.869Z,10.38
2023-01-12T14:07:06.803Z,8.23
2023-01-12T14:09:52.308Z,14.80
2023-01-12T14:12:38.085Z,8.52
2023-01-12T14:15:45.174Z,6.82
2023-01-12T14:18:15.771Z,7.97
2023-01-12T14:20:49.413Z,7.28
2023-01-12T14:23:23.237Z,7.10
2023-01-12T14:26:09.186Z,7.68
2023-01-12T14:28:47.308Z,9.57
2023-01-12T14:31:30.729Z,9.65
2023-01-12T14:34:01.695Z,9.32
2023-01-12T14:36:34.397Z,8.55
2023-01-12T14:39:08.284Z,13.80
2023-01-12T14:41:54.106Z,16.40
2023-01-12T14:44:43.003Z,18.05
2023-01-12T14:47:22.656Z,18.75
2023-01-12T14:49:50.303Z,16.88
2023-01-12T14:52:24.012Z,15.05
2023-01-12T14:54:52.296Z,13.00
2023-01-12T14:57:26.780Z,12.63
2023-01-12T14:59:54.263Z,9.68
2023-01-12T15:02:33.318Z,9.55
2023-01-12T15:05:17.872Z,10.30
2023-01-12T15:08:16.322Z,11.38
2023-01-12T15:10:44.281Z,12.38
2023-01-12T15:13:30.382Z,16.27
2023-01-12T15:16:16.239Z,12.90
2023-01-12T15:19:02.875Z,17.52
2023-01-12T15:21:50.428Z,16.63
2023-01-12T15:24:44.179Z,19.10
2023-01-12T15:27:14.649Z,20.77
2023-01-12T15:29:42.049Z,19.00
2023-01-12T15:32:49.562Z,25.08
2023-01-12T15:35:21.542Z,30.88
2023-01-12T15:37:49.082Z,28.88
2023-01-12T15:40:17.900Z,30.85
2023-01-12T15:42:45.255Z,32.58
2023-01-12T15:45:39.749Z,68.15
2023-01-12T15:48:07.637Z,87.95
2023-01-12T15:50:38.836Z,37.50
2023-01-12T15:53:27.725Z,32.30
2023-01-12T15:55:55.101Z,39.70
2023-01-12T15:58:23.888Z,46.38
2023-01-12T16:00:51.867Z,42.20
2023-01-12T16:03:48.991Z,44.35
2023-01-12T16:06:06.684Z,55.75
2023-01-12T16:08:34.024Z,70.05
2023-01-12T16:11:12.066Z,111.78
2023-01-12T16:13:40.388Z,119.07
2023-01-12T16:16:08.400Z,74.03
2023-01-12T16:18:35.752Z,68.68
2023-01-12T16:21:03.037Z,68.82
2023-01-12T16:23:31.866Z,64.13
2023-01-12T16:26:00.801Z,70.97
2023-01-12T16:28:28.691Z,81.95
2023-01-12T16:30:56.817Z,75.13
2023-01-12T16:33:24.503Z,70.25
2023-01-12T16:35:55.024Z,70.07
2023-01-12T16:38:22.251Z,75.47
2023-01-12T16:40:51.300Z,79.28
2023-01-12T16:43:21.029Z,80.90
2023-01-12T16:45:48.648Z,76.90
2023-01-12T16:48:16.214Z,112.38
2023-01-12T16:50:43.604Z,97.93
2023-01-12T16:53:12.807Z,98.90
2023-01-12T16:55:40.158Z,88.43
2023-01-12T16:58:09.694Z,83.85
2023-01-12T17:00:36.962Z,87.15
2023-01-12T17:03:04.845Z,88.75
2023-01-12T17:05:32.110Z,98.57
2023-01-12T17:07:59.505Z,94.78
2023-01-12T17:10:26.984Z,102.22
2023-01-12T17:13:01.071Z,95.43
2023-01-12T17:15:29.987Z,83.35
2023-01-12T17:17:57.492Z,104.53
2023-01-12T17:20:25.121Z,101.78
2023-01-12T17:22:52.594Z,101.00
2023-01-12T17:25:20.357Z,96.53
2023-01-12T17:27:48.331Z,90.22
2023-01-12T17:30:16.211Z,86.00
2023-01-12T17:32:43.722Z,78.82
2023-01-12T17:35:10.991Z,77.38
2023-01-12T17:37:38.329Z,73.55
2023-01-12T17:40:06.045Z,77.18
2023-01-12T17:42:51.904Z,88.50
2023-01-12T17:45:19.149Z,89.25
2023-01-12T17:47:46.423Z,76.07
2023-01-12T17:50:13.839Z,86.78
2023-01-12T17:52:41.101Z,66.22
2023-01-12T17:55:08.603Z,85.47
2023-01-12T17:57:36.749Z,72.05
2023-01-12T18:00:05.853Z,65.03
2023-01-12T18:02:40.146Z,71.97
2023-01-12T18:05:07.784Z,76.55
2023-01-12T18:07:35.677Z,79.63
2023-01-12T18:10:03.515Z,72.53
2023-01-12T18:12:31.662Z,70.43
2023-01-12T18:14:59.118Z,69.50
2023-01-12T18:17:26.475Z,69.78
2023-01-12T18:19:53.778Z,69.43
2023-01-12T18:22:21.110Z,69.53
2023-01-12T18:24:48.343Z,66.15
2023-01-12T18:27:15.615Z,56.85
2023-01-12T18:29:43.115Z,55.35
2023-01-12T18:32:10.371Z,48.10
2023-01-12T18:34:39.223Z,40.95
2023-01-12T18:37:06.672Z,39.42
2023-01-12T18:39:34.056Z,39.00
2023-01-12T18:42:19.881Z,38.45
2023-01-12T18:44:48.380Z,36.42
2023-01-12T18:47:34.335Z,32.17
2023-01-12T18:50:22.239Z,35.67
2023-01-12T18:53:08.619Z,33.90
2023-01-12T18:55:38.979Z,35.00
2023-01-12T18:58:06.345Z,36.20
2023-01-12T19:00:33.716Z,33.35
2023-01-12T19:03:01.393Z,40.13
2023-01-12T19:05:35.701Z,42.00
2023-01-12T19:08:23.392Z,39.47
2023-01-12T19:10:50.891Z,40.03
2023-01-12T19:13:36.841Z,34.45
2023-01-12T19:16:22.934Z,35.22
2023-01-12T19:18:50.435Z,34.85
2023-01-12T19:21:36.485Z,33.70
2023-01-12T19:24:22.123Z,36.85
2023-01-12T19:27:07.732Z,32.42
2023-01-12T19:29:35.496Z,31.15
2023-01-12T19:32:03.181Z,28.60
2023-01-12T19:34:30.440Z,30.92
2023-01-12T19:36:57.784Z,28.92
2023-01-12T19:39:49.453Z,32.45
2023-01-12T19:42:38.479Z,28.23
2023-01-12T19:45:08.659Z,28.98
2023-01-12T19:47:38.287Z,41.95
2023-01-12T19:50:09.477Z,32.00
2023-01-12T19:52:38.179Z,40.33
2023-01-12T19:55:08.422Z,35.70
2023-01-12T19:57:36.877Z,37.45
2023-01-12T20:00:07.893Z,32.55
2023-01-12T20:02:39.490Z,29.60
2023-01-12T20:05:06.929Z,30.90
2023-01-12T20:07:34.378Z,32.42
2023-01-12T20:10:01.725Z,37.05
2023-01-12T20:12:29.173Z,32.47
2023-01-12T20:14:56.859Z,32.13
2023-01-12T20:17:24.512Z,31.17
2023-01-12T20:19:51.859Z,40.38
2023-01-12T20:22:19.156Z,38.88
2023-01-12T20:24:47.626Z,50.10
2023-01-12T20:27:15.374Z,48.97
2023-01-12T20:29:42.953Z,53.53
2023-01-12T20:32:10.324Z,45.10
2023-01-12T20:34:37.703Z,40.85
2023-01-12T20:37:05.397Z,40.10
2023-01-12T20:39:32.733Z,37.60
2023-01-12T20:42:00.109Z,41.38
2023-01-12T20:44:27.402Z,46.17
2023-01-12T20:46:54.664Z,40.55
2023-01-12T20:49:22.007Z,43.60
2023-01-12T20:51:49.541Z,54.25
2023-01-12T20:54:16.985Z,45.65
2023-01-12T20:56:44.283Z,44.78
2023-01-12T20:59:11.561Z,46.72
2023-01-12T21:01:39.081Z,46.70
2023-01-12T21:04:06.487Z,41.55
2023-01-12T21:06:33.877Z,45.10
2023-01-12T21:09:01.285Z,46.83
2023-01-12T21:11:28.615Z,59.17
2023-01-12T21:13:56.587Z,55.03
2023-01-12T21:16:24.084Z,61.72
2023-01-12T21:18:51.666Z,53.42
2023-01-12T21:21:18.984Z,57.80
2023-01-12T21:23:46.361Z,49.50
2023-01-12T21:26:14.305Z,68.85
2023-01-12T21:28:42.021Z,51.70
2023-01-12T21:31:12.384Z,61.78
2023-01-12T21:33:39.800Z,52.88
2023-01-12T21:36:07.552Z,58.22
2023-01-12T21:38:34.776Z,53.47
2023-01-12T21:41:04.182Z,56.92
2023-01-12T21:43:32.532Z,53.17
2023-01-12T21:46:05.581Z,53.92
2023-01-12T21:48:32.956Z,51.63
2023-01-12T21:51:02.450Z,50.28
2023-01-12T21:53:29.780Z,45.60
2023-01-12T21:56:00.478Z,51.97
2023-01-12T21:58:29.742Z,44.95
2023-01-12T22:00:58.092Z,51.25
2023-01-12T22:03:27.165Z,41.60
2023-01-12T22:05:55.206Z,52.60
2023-01-12T22:08:22.507Z,46.80
2023-01-12T22:10:49.959Z,45.22
2023-01-12T22:13:17.664Z,52.33
2023-01-12T22:15:45.209Z,80.20
2023-01-12T22:18:12.482Z,75.13
2023-01-12T22:20:42.317Z,63.97
2023-01-12T22:23:13.070Z,65.10
2023-01-12T22:25:40.569Z,87.53
2023-01-12T22:28:07.878Z,109.30
2023-01-12T22:30:35.227Z,119.82
2023-01-12T22:33:02.769Z,116.53
2023-01-12T22:35:30.107Z,112.70
2023-01-12T22:37:58.035Z,89.25
2023-01-12T22:40:25.244Z,107.55
2023-01-12T22:43:10.953Z,93.50
2023-01-12T22:45:38.406Z,103.97
2023-01-12T22:48:06.183Z,99.10
2023-01-12T22:50:33.436Z,79.50
2023-01-12T22:53:00.693Z,89.72
2023-01-12T22:55:28.023Z,77.78
2023-01-12T22:57:55.364Z,75.15
2023-01-12T23:00:22.676Z,99.93
2023-01-12T23:03:02.765Z,86.15
2023-01-12T23:05:35.210Z,76.45
2023-01-12T23:08:04.538Z,71.50
2023-01-12T23:10:32.760Z,79.22
2023-01-12T23:13:15.565Z,80.82
2023-01-12T23:15:53.513Z,77.43
2023-01-12T23:18:23.425Z,82.70
2023-01-12T23:23:18.149Z,73.28
2023-01-12T23:25:47.058Z,62.42
2023-01-12T23:28:15.336Z,62.72
2023-01-12T23:30:42.691Z,60.58
2023-01-12T23:33:10.330Z,59.58
2023-01-12T23:35:39.982Z,79.40
2023-01-12T23:38:12.518Z,62.60
2023-01-12T23:40:39.848Z,55.67
2023-01-12T23:43:07.202Z,56.55
2023-01-12T23:45:34.642Z,69.03
2023-01-12T23:48:02.119Z,81.05
2023-01-12T23:50:29.367Z,69.80
2023-01-12T23:52:56.729Z,62.03
2023-01-12T23:55:25.951Z,65.78
2023-01-12T23:57:53.286Z,60.72
